sensor_id;sensor_type;location;lat;lon;timestamp;P1;durP1;ratioP1;P2;durP2;ratioP2
12784;SDS011;6456;42.680;23.260;2022-07-23T00:00:06;7.40;;;5.13;;
12784;SDS011;6456;42.680;23.260;2022-07-23T00:02:34;9.13;;;5.63;;
12784;SDS011;6456;42.680;23.260;2022-07-23T00:05:00;6.18;;;5.43;;
12784;SDS011;6456;42.680;23.260;2022-07-23T00:07:27;5.45;;;4.95;;
12784;SDS011;6456;42.680;23.260;2022-07-23T00:09:54;7.40;;;6.00;;
12784;SDS011;6456;42.680;23.260;2022-07-23T00:12:22;8.55;;;5.53;;
12784;SDS011;6456;42.680;23.260;2022-07-23T00:14:49;5.97;;;5.37;;
12784;SDS011;6456;42.680;23.260;2022-07-23T00:17:16;7.10;;;5.47;;
12784;SDS011;6456;42.680;23.260;2022-07-23T00:19:43;7.43;;;5.45;;
12784;SDS011;6456;42.680;23.260;2022-07-23T00:22:10;10.73;;;5.35;;
12784;SDS011;6456;42.680;23.260;2022-07-23T00:24:37;8.02;;;6.05;;
12784;SDS011;6456;42.680;23.260;2022-07-23T00:27:04;5.53;;;4.83;;
12784;SDS011;6456;42.680;23.260;2022-07-23T00:29:32;11.25;;;5.53;;
12784;SDS011;6456;42.680;23.260;2022-07-23T00:31:59;5.93;;;5.33;;
12784;SDS011;6456;42.680;23.260;2022-07-23T00:34:26;7.87;;;5.40;;
12784;SDS011;6456;42.680;23.260;2022-07-23T00:36:52;6.70;;;5.45;;
12784;SDS011;6456;42.680;23.260;2022-07-23T00:39:19;7.40;;;5.83;;
12784;SDS011;6456;42.680;23.260;2022-07-23T00:41:47;7.00;;;5.50;;
12784;SDS011;6456;42.680;23.260;2022-07-23T00:44:15;8.23;;;5.80;;
12784;SDS011;6456;42.680;23.260;2022-07-23T00:46:49;6.90;;;5.70;;
12784;SDS011;6456;42.680;23.260;2022-07-23T00:49:19;9.37;;;5.47;;
12784;SDS011;6456;42.680;23.260;2022-07-23T00:51:46;9.00;;;5.70;;
12784;SDS011;6456;42.680;23.260;2022-07-23T00:54:14;6.43;;;5.47;;
12784;SDS011;6456;42.680;23.260;2022-07-23T00:56:41;9.37;;;5.73;;
12784;SDS011;6456;42.680;23.260;2022-07-23T00:59:10;6.10;;;5.57;;
12784;SDS011;6456;42.680;23.260;2022-07-23T01:01:37;6.83;;;5.20;;
12784;SDS011;6456;42.680;23.260;2022-07-23T01:04:05;7.07;;;5.47;;
12784;SDS011;6456;42.680;23.260;2022-07-23T01:06:33;9.10;;;5.47;;
12784;SDS011;6456;42.680;23.260;2022-07-23T01:09:01;6.00;;;5.40;;
12784;SDS011;6456;42.680;23.260;2022-07-23T01:11:29;6.83;;;5.40;;
12784;SDS011;6456;42.680;23.260;2022-07-23T01:13:57;6.43;;;5.40;;
12784;SDS011;6456;42.680;23.260;2022-07-23T01:16:24;8.70;;;5.13;;
12784;SDS011;6456;42.680;23.260;2022-07-23T01:18:51;7.77;;;5.63;;
12784;SDS011;6456;42.680;23.260;2022-07-23T01:21:19;6.87;;;5.30;;
12784;SDS011;6456;42.680;23.260;2022-07-23T01:23:48;6.10;;;5.47;;
12784;SDS011;6456;42.680;23.260;2022-07-23T01:26:15;8.23;;;4.97;;
12784;SDS011;6456;42.680;23.260;2022-07-23T01:28:42;8.80;;;5.47;;
12784;SDS011;6456;42.680;23.260;2022-07-23T01:31:09;7.60;;;4.97;;
12784;SDS011;6456;42.680;23.260;2022-07-23T01:33:37;6.60;;;5.23;;
12784;SDS011;6456;42.680;23.260;2022-07-23T01:36:04;7.83;;;5.23;;
12784;SDS011;6456;42.680;23.260;2022-07-23T01:38:31;7.93;;;5.67;;
12784;SDS011;6456;42.680;23.260;2022-07-23T01:40:59;6.53;;;5.07;;
12784;SDS011;6456;42.680;23.260;2022-07-23T01:43:26;6.13;;;5.37;;
12784;SDS011;6456;42.680;23.260;2022-07-23T01:45:53;8.27;;;5.57;;
12784;SDS011;6456;42.680;23.260;2022-07-23T01:48:20;5.60;;;5.00;;
12784;SDS011;6456;42.680;23.260;2022-07-23T01:50:47;12.23;;;5.97;;
12784;SDS011;6456;42.680;23.260;2022-07-23T01:53:14;6.53;;;5.57;;
12784;SDS011;6456;42.680;23.260;2022-07-23T01:55:41;8.63;;;5.40;;
12784;SDS011;6456;42.680;23.260;2022-07-23T01:58:10;6.20;;;5.60;;
12784;SDS011;6456;42.680;23.260;2022-07-23T02:00:37;8.40;;;5.97;;
12784;SDS011;6456;42.680;23.260;2022-07-23T02:03:04;5.43;;;4.53;;
12784;SDS011;6456;42.680;23.260;2022-07-23T02:05:31;7.00;;;5.23;;
12784;SDS011;6456;42.680;23.260;2022-07-23T02:07:58;6.00;;;5.33;;
12784;SDS011;6456;42.680;23.260;2022-07-23T02:10:25;6.17;;;5.27;;
12784;SDS011;6456;42.680;23.260;2022-07-23T02:12:52;6.93;;;5.47;;
12784;SDS011;6456;42.680;23.260;2022-07-23T02:15:21;7.73;;;5.10;;
12784;SDS011;6456;42.680;23.260;2022-07-23T02:17:47;6.10;;;5.50;;
12784;SDS011;6456;42.680;23.260;2022-07-23T02:20:15;7.27;;;5.90;;
12784;SDS011;6456;42.680;23.260;2022-07-23T02:22:42;7.40;;;5.23;;
12784;SDS011;6456;42.680;23.260;2022-07-23T02:25:09;8.60;;;5.83;;
12784;SDS011;6456;42.680;23.260;2022-07-23T02:27:35;7.27;;;5.07;;
12784;SDS011;6456;42.680;23.260;2022-07-23T02:30:03;7.50;;;5.60;;
12784;SDS011;6456;42.680;23.260;2022-07-23T02:32:32;8.67;;;6.33;;
12784;SDS011;6456;42.680;23.260;2022-07-23T02:34:59;7.73;;;6.57;;
12784;SDS011;6456;42.680;23.260;2022-07-23T02:37:26;9.57;;;6.37;;
12784;SDS011;6456;42.680;23.260;2022-07-23T02:39:53;9.63;;;6.50;;
12784;SDS011;6456;42.680;23.260;2022-07-23T02:42:20;7.50;;;6.80;;
12784;SDS011;6456;42.680;23.260;2022-07-23T02:44:48;7.27;;;6.53;;
12784;SDS011;6456;42.680;23.260;2022-07-23T02:47:15;7.77;;;6.53;;
12784;SDS011;6456;42.680;23.260;2022-07-23T02:49:44;6.27;;;5.67;;
12784;SDS011;6456;42.680;23.260;2022-07-23T02:52:10;10.23;;;6.50;;
12784;SDS011;6456;42.680;23.260;2022-07-23T02:54:37;8.20;;;6.13;;
12784;SDS011;6456;42.680;23.260;2022-07-23T02:57:04;7.07;;;5.67;;
12784;SDS011;6456;42.680;23.260;2022-07-23T02:59:31;7.03;;;5.63;;
12784;SDS011;6456;42.680;23.260;2022-07-23T03:01:58;6.93;;;6.10;;
12784;SDS011;6456;42.680;23.260;2022-07-23T03:04:24;7.33;;;6.30;;
12784;SDS011;6456;42.680;23.260;2022-07-23T03:06:53;10.03;;;6.23;;
12784;SDS011;6456;42.680;23.260;2022-07-23T03:09:19;7.50;;;6.00;;
12784;SDS011;6456;42.680;23.260;2022-07-23T03:11:46;8.90;;;6.43;;
12784;SDS011;6456;42.680;23.260;2022-07-23T03:14:13;9.80;;;6.37;;
12784;SDS011;6456;42.680;23.260;2022-07-23T03:16:41;10.97;;;6.33;;
12784;SDS011;6456;42.680;23.260;2022-07-23T03:19:08;13.57;;;6.77;;
12784;SDS011;6456;42.680;23.260;2022-07-23T03:21:35;11.30;;;6.33;;
12784;SDS011;6456;42.680;23.260;2022-07-23T03:24:07;8.83;;;7.23;;
12784;SDS011;6456;42.680;23.260;2022-07-23T03:26:34;12.20;;;7.30;;
12784;SDS011;6456;42.680;23.260;2022-07-23T03:29:01;11.37;;;6.70;;
12784;SDS011;6456;42.680;23.260;2022-07-23T03:31:30;9.27;;;7.20;;
12784;SDS011;6456;42.680;23.260;2022-07-23T03:33:57;9.63;;;6.80;;
12784;SDS011;6456;42.680;23.260;2022-07-23T03:36:24;10.17;;;6.60;;
12784;SDS011;6456;42.680;23.260;2022-07-23T03:38:51;7.97;;;7.00;;
12784;SDS011;6456;42.680;23.260;2022-07-23T03:41:19;11.20;;;7.23;;
12784;SDS011;6456;42.680;23.260;2022-07-23T03:43:46;9.83;;;6.87;;
12784;SDS011;6456;42.680;23.260;2022-07-23T03:46:13;12.40;;;7.73;;
12784;SDS011;6456;42.680;23.260;2022-07-23T03:48:40;10.20;;;6.73;;
12784;SDS011;6456;42.680;23.260;2022-07-23T03:51:07;6.57;;;5.93;;
12784;SDS011;6456;42.680;23.260;2022-07-23T03:53:34;7.27;;;6.50;;
12784;SDS011;6456;42.680;23.260;2022-07-23T03:56:00;7.07;;;6.27;;
12784;SDS011;6456;42.680;23.260;2022-07-23T03:58:29;7.77;;;6.00;;
12784;SDS011;6456;42.680;23.260;2022-07-23T04:00:55;8.73;;;5.77;;
12784;SDS011;6456;42.680;23.260;2022-07-23T04:03:22;6.23;;;5.33;;
12784;SDS011;6456;42.680;23.260;2022-07-23T04:05:49;8.13;;;6.10;;
12784;SDS011;6456;42.680;23.260;2022-07-23T04:08:16;8.67;;;5.60;;
12784;SDS011;6456;42.680;23.260;2022-07-23T04:10:42;10.77;;;6.47;;
12784;SDS011;6456;42.680;23.260;2022-07-23T04:13:09;10.57;;;6.13;;
12784;SDS011;6456;42.680;23.260;2022-07-23T04:15:38;8.73;;;6.00;;
12784;SDS011;6456;42.680;23.260;2022-07-23T04:18:05;11.27;;;6.80;;
12784;SDS011;6456;42.680;23.260;2022-07-23T04:20:33;7.23;;;5.80;;
12784;SDS011;6456;42.680;23.260;2022-07-23T04:22:59;9.23;;;6.07;;
12784;SDS011;6456;42.680;23.260;2022-07-23T04:25:26;8.83;;;6.33;;
12784;SDS011;6456;42.680;23.260;2022-07-23T04:27:53;6.80;;;6.10;;
12784;SDS011;6456;42.680;23.260;2022-07-23T04:30:20;8.13;;;6.20;;
12784;SDS011;6456;42.680;23.260;2022-07-23T04:32:48;9.27;;;5.67;;
12784;SDS011;6456;42.680;23.260;2022-07-23T04:35:15;10.20;;;6.23;;
12784;SDS011;6456;42.680;23.260;2022-07-23T04:37:42;10.90;;;5.83;;
12784;SDS011;6456;42.680;23.260;2022-07-23T04:40:09;11.40;;;6.13;;
12784;SDS011;6456;42.680;23.260;2022-07-23T04:42:37;8.03;;;6.23;;
12784;SDS011;6456;42.680;23.260;2022-07-23T04:45:05;8.03;;;6.30;;
12784;SDS011;6456;42.680;23.260;2022-07-23T04:47:32;7.27;;;5.83;;
12784;SDS011;6456;42.680;23.260;2022-07-23T04:50:01;7.70;;;5.87;;
12784;SDS011;6456;42.680;23.260;2022-07-23T04:52:27;8.23;;;6.47;;
12784;SDS011;6456;42.680;23.260;2022-07-23T04:54:54;7.30;;;6.10;;
12784;SDS011;6456;42.680;23.260;2022-07-23T04:57:21;9.40;;;6.70;;
12784;SDS011;6456;42.680;23.260;2022-07-23T04:59:48;7.73;;;6.50;;
12784;SDS011;6456;42.680;23.260;2022-07-23T05:02:15;7.17;;;6.30;;
12784;SDS011;6456;42.680;23.260;2022-07-23T05:04:42;7.87;;;5.80;;
12784;SDS011;6456;42.680;23.260;2022-07-23T05:07:10;9.87;;;6.60;;
12784;SDS011;6456;42.680;23.260;2022-07-23T05:09:37;9.70;;;7.00;;
12784;SDS011;6456;42.680;23.260;2022-07-23T05:12:04;9.27;;;6.33;;
12784;SDS011;6456;42.680;23.260;2022-07-23T05:14:31;13.23;;;6.90;;
12784;SDS011;6456;42.680;23.260;2022-07-23T05:16:58;9.87;;;6.30;;
12784;SDS011;6456;42.680;23.260;2022-07-23T05:19:24;10.77;;;6.90;;
12784;SDS011;6456;42.680;23.260;2022-07-23T05:21:51;9.67;;;6.10;;
12784;SDS011;6456;42.680;23.260;2022-07-23T05:24:19;10.47;;;6.80;;
12784;SDS011;6456;42.680;23.260;2022-07-23T05:26:46;7.83;;;6.30;;
12784;SDS011;6456;42.680;23.260;2022-07-23T05:29:13;10.87;;;6.53;;
12784;SDS011;6456;42.680;23.260;2022-07-23T05:31:40;7.07;;;5.67;;
12784;SDS011;6456;42.680;23.260;2022-07-23T05:34:07;13.37;;;7.10;;
12784;SDS011;6456;42.680;23.260;2022-07-23T05:36:34;7.50;;;6.70;;
12784;SDS011;6456;42.680;23.260;2022-07-23T05:39:00;11.88;;;6.65;;
12784;SDS011;6456;42.680;23.260;2022-07-23T05:41:29;8.90;;;7.00;;
12784;SDS011;6456;42.680;23.260;2022-07-23T05:43:55;10.40;;;6.97;;
12784;SDS011;6456;42.680;23.260;2022-07-23T05:46:22;7.23;;;5.97;;
12784;SDS011;6456;42.680;23.260;2022-07-23T05:48:49;11.05;;;6.53;;
12784;SDS011;6456;42.680;23.260;2022-07-23T05:51:19;8.77;;;6.70;;
12784;SDS011;6456;42.680;23.260;2022-07-23T05:53:46;11.65;;;7.50;;
12784;SDS011;6456;42.680;23.260;2022-07-23T05:56:13;14.23;;;7.63;;
12784;SDS011;6456;42.680;23.260;2022-07-23T05:58:41;9.65;;;6.75;;
12784;SDS011;6456;42.680;23.260;2022-07-23T06:01:08;10.20;;;6.67;;
12784;SDS011;6456;42.680;23.260;2022-07-23T06:03:36;7.60;;;6.75;;
12784;SDS011;6456;42.680;23.260;2022-07-23T06:06:04;9.25;;;6.57;;
12784;SDS011;6456;42.680;23.260;2022-07-23T06:08:31;9.90;;;6.78;;
12784;SDS011;6456;42.680;23.260;2022-07-23T06:10:58;10.88;;;6.63;;
12784;SDS011;6456;42.680;23.260;2022-07-23T06:13:25;10.93;;;6.75;;
12784;SDS011;6456;42.680;23.260;2022-07-23T06:15:53;11.00;;;6.55;;
12784;SDS011;6456;42.680;23.260;2022-07-23T06:18:20;10.32;;;6.95;;
12784;SDS011;6456;42.680;23.260;2022-07-23T06:20:47;7.85;;;6.45;;
12784;SDS011;6456;42.680;23.260;2022-07-23T06:23:13;10.15;;;6.32;;
12784;SDS011;6456;42.680;23.260;2022-07-23T06:25:40;9.05;;;6.32;;
12784;SDS011;6456;42.680;23.260;2022-07-23T06:28:07;23.45;;;7.30;;
12784;SDS011;6456;42.680;23.260;2022-07-23T06:30:34;13.13;;;6.45;;
12784;SDS011;6456;42.680;23.260;2022-07-23T06:33:02;9.15;;;6.55;;
12784;SDS011;6456;42.680;23.260;2022-07-23T06:35:29;8.98;;;6.40;;
12784;SDS011;6456;42.680;23.260;2022-07-23T06:37:56;8.20;;;6.25;;
12784;SDS011;6456;42.680;23.260;2022-07-23T06:40:23;8.40;;;6.78;;
12784;SDS011;6456;42.680;23.260;2022-07-23T06:42:49;18.17;;;7.20;;
12784;SDS011;6456;42.680;23.260;2022-07-23T06:45:17;11.20;;;7.15;;
12784;SDS011;6456;42.680;23.260;2022-07-23T06:47:44;12.18;;;7.20;;
12784;SDS011;6456;42.680;23.260;2022-07-23T06:50:12;9.27;;;6.95;;
12784;SDS011;6456;42.680;23.260;2022-07-23T06:52:39;12.82;;;7.20;;
12784;SDS011;6456;42.680;23.260;2022-07-23T06:55:06;13.25;;;6.85;;
12784;SDS011;6456;42.680;23.260;2022-07-23T06:57:33;10.80;;;7.07;;
12784;SDS011;6456;42.680;23.260;2022-07-23T07:00:00;7.82;;;6.18;;
12784;SDS011;6456;42.680;23.260;2022-07-23T07:02:27;10.75;;;6.63;;
12784;SDS011;6456;42.680;23.260;2022-07-23T07:04:53;8.38;;;6.80;;
12784;SDS011;6456;42.680;23.260;2022-07-23T07:07:22;8.05;;;6.43;;
12784;SDS011;6456;42.680;23.260;2022-07-23T07:09:49;8.75;;;6.28;;
12784;SDS011;6456;42.680;23.260;2022-07-23T07:12:16;8.00;;;7.03;;
12784;SDS011;6456;42.680;23.260;2022-07-23T07:14:43;9.68;;;5.60;;
12784;SDS011;6456;42.680;23.260;2022-07-23T07:17:09;8.45;;;6.18;;
12784;SDS011;6456;42.680;23.260;2022-07-23T07:19:36;8.32;;;6.20;;
12784;SDS011;6456;42.680;23.260;2022-07-23T07:22:03;25.02;;;7.13;;
12784;SDS011;6456;42.680;23.260;2022-07-23T07:24:31;10.50;;;6.45;;
12784;SDS011;6456;42.680;23.260;2022-07-23T07:26:58;8.70;;;6.78;;
12784;SDS011;6456;42.680;23.260;2022-07-23T07:29:25;8.85;;;6.68;;
12784;SDS011;6456;42.680;23.260;2022-07-23T07:31:53;11.18;;;6.55;;
12784;SDS011;6456;42.680;23.260;2022-07-23T07:34:20;8.27;;;6.80;;
12784;SDS011;6456;42.680;23.260;2022-07-23T07:36:46;11.57;;;7.05;;
12784;SDS011;6456;42.680;23.260;2022-07-23T07:39:13;11.02;;;6.65;;
12784;SDS011;6456;42.680;23.260;2022-07-23T07:41:41;10.02;;;6.45;;
12784;SDS011;6456;42.680;23.260;2022-07-23T07:44:08;9.85;;;6.90;;
12784;SDS011;6456;42.680;23.260;2022-07-23T07:46:35;9.43;;;6.63;;
12784;SDS011;6456;42.680;23.260;2022-07-23T07:49:02;12.82;;;6.35;;
12784;SDS011;6456;42.680;23.260;2022-07-23T07:51:28;9.02;;;6.65;;
12784;SDS011;6456;42.680;23.260;2022-07-23T07:53:55;10.18;;;6.35;;
12784;SDS011;6456;42.680;23.260;2022-07-23T07:56:22;7.88;;;6.53;;
12784;SDS011;6456;42.680;23.260;2022-07-23T07:58:50;8.15;;;6.43;;
12784;SDS011;6456;42.680;23.260;2022-07-23T08:01:17;8.23;;;6.57;;
12784;SDS011;6456;42.680;23.260;2022-07-23T08:03:45;11.13;;;6.68;;
12784;SDS011;6456;42.680;23.260;2022-07-23T08:06:12;8.07;;;6.68;;
12784;SDS011;6456;42.680;23.260;2022-07-23T08:08:39;10.40;;;6.65;;
12784;SDS011;6456;42.680;23.260;2022-07-23T08:11:06;17.02;;;7.35;;
12784;SDS011;6456;42.680;23.260;2022-07-23T08:13:33;9.23;;;6.28;;
12784;SDS011;6456;42.680;23.260;2022-07-23T08:16:01;9.27;;;7.03;;
12784;SDS011;6456;42.680;23.260;2022-07-23T08:18:28;9.93;;;7.38;;
12784;SDS011;6456;42.680;23.260;2022-07-23T08:20:55;9.80;;;6.70;;
12784;SDS011;6456;42.680;23.260;2022-07-23T08:23:21;7.47;;;6.65;;
12784;SDS011;6456;42.680;23.260;2022-07-23T08:25:48;9.85;;;6.80;;
12784;SDS011;6456;42.680;23.260;2022-07-23T08:28:15;8.27;;;6.50;;
12784;SDS011;6456;42.680;23.260;2022-07-23T08:30:43;8.98;;;6.53;;
12784;SDS011;6456;42.680;23.260;2022-07-23T08:33:13;12.85;;;7.38;;
12784;SDS011;6456;42.680;23.260;2022-07-23T08:35:42;9.90;;;6.95;;
12784;SDS011;6456;42.680;23.260;2022-07-23T08:38:11;11.05;;;6.95;;
12784;SDS011;6456;42.680;23.260;2022-07-23T08:40:41;11.20;;;6.95;;
12784;SDS011;6456;42.680;23.260;2022-07-23T08:43:10;13.57;;;7.70;;
12784;SDS011;6456;42.680;23.260;2022-07-23T08:45:39;7.85;;;7.07;;
12784;SDS011;6456;42.680;23.260;2022-07-23T08:48:08;12.05;;;6.85;;
12784;SDS011;6456;42.680;23.260;2022-07-23T08:50:38;7.05;;;6.30;;
12784;SDS011;6456;42.680;23.260;2022-07-23T08:53:09;9.38;;;6.95;;
12784;SDS011;6456;42.680;23.260;2022-07-23T08:55:36;7.82;;;6.80;;
12784;SDS011;6456;42.680;23.260;2022-07-23T08:58:03;7.07;;;6.38;;
12784;SDS011;6456;42.680;23.260;2022-07-23T09:00:29;9.68;;;6.65;;
12784;SDS011;6456;42.680;23.260;2022-07-23T09:02:56;10.02;;;6.88;;
12784;SDS011;6456;42.680;23.260;2022-07-23T09:05:23;8.23;;;7.22;;
12784;SDS011;6456;42.680;23.260;2022-07-23T09:08:08;9.90;;;6.85;;
12784;SDS011;6456;42.680;23.260;2022-07-23T09:10:50;8.50;;;6.13;;
12784;SDS011;6456;42.680;23.260;2022-07-23T09:13:32;11.02;;;7.10;;
12784;SDS011;6456;42.680;23.260;2022-07-23T09:16:02;10.82;;;7.03;;
12784;SDS011;6456;42.680;23.260;2022-07-23T09:18:31;11.45;;;7.40;;
12784;SDS011;6456;42.680;23.260;2022-07-23T09:23:57;7.22;;;6.45;;
12784;SDS011;6456;42.680;23.260;2022-07-23T09:26:27;8.75;;;6.15;;
12784;SDS011;6456;42.680;23.260;2022-07-23T09:28:59;8.85;;;6.22;;
12784;SDS011;6456;42.680;23.260;2022-07-23T09:31:32;8.00;;;5.95;;
12784;SDS011;6456;42.680;23.260;2022-07-23T09:34:10;9.38;;;5.80;;
12784;SDS011;6456;42.680;23.260;2022-07-23T09:36:39;8.75;;;5.85;;
12784;SDS011;6456;42.680;23.260;2022-07-23T09:39:08;12.25;;;6.20;;
12784;SDS011;6456;42.680;23.260;2022-07-23T09:41:37;11.35;;;6.65;;
12784;SDS011;6456;42.680;23.260;2022-07-23T09:44:09;11.13;;;6.30;;
12784;SDS011;6456;42.680;23.260;2022-07-23T09:46:38;18.10;;;6.35;;
12784;SDS011;6456;42.680;23.260;2022-07-23T09:49:16;12.15;;;5.95;;
12784;SDS011;6456;42.680;23.260;2022-07-23T09:51:44;7.38;;;6.00;;
12784;SDS011;6456;42.680;23.260;2022-07-23T09:54:25;8.18;;;5.78;;
12784;SDS011;6456;42.680;23.260;2022-07-23T09:57:01;6.72;;;5.40;;
12784;SDS011;6456;42.680;23.260;2022-07-23T09:59:32;8.32;;;5.43;;
12784;SDS011;6456;42.680;23.260;2022-07-23T10:02:00;6.15;;;5.53;;
12784;SDS011;6456;42.680;23.260;2022-07-23T10:04:28;6.80;;;5.40;;
12784;SDS011;6456;42.680;23.260;2022-07-23T10:06:56;9.77;;;5.68;;
12784;SDS011;6456;42.680;23.260;2022-07-23T10:09:28;8.60;;;6.20;;
12784;SDS011;6456;42.680;23.260;2022-07-23T10:11:58;8.18;;;5.93;;
12784;SDS011;6456;42.680;23.260;2022-07-23T10:14:33;6.65;;;5.18;;
12784;SDS011;6456;42.680;23.260;2022-07-23T10:17:03;7.25;;;5.07;;
12784;SDS011;6456;42.680;23.260;2022-07-23T10:19:30;12.48;;;5.50;;
12784;SDS011;6456;42.680;23.260;2022-07-23T10:21:58;7.82;;;5.03;;
12784;SDS011;6456;42.680;23.260;2022-07-23T10:24:39;10.98;;;5.50;;
12784;SDS011;6456;42.680;23.260;2022-07-23T10:30:10;8.63;;;4.80;;
12784;SDS011;6456;42.680;23.260;2022-07-23T10:32:44;10.30;;;5.72;;
12784;SDS011;6456;42.680;23.260;2022-07-23T10:35:19;7.10;;;5.28;;
12784;SDS011;6456;42.680;23.260;2022-07-23T10:37:51;5.90;;;4.90;;
12784;SDS011;6456;42.680;23.260;2022-07-23T10:40:24;7.88;;;4.88;;
12784;SDS011;6456;42.680;23.260;2022-07-23T10:42:51;10.52;;;5.63;;
12784;SDS011;6456;42.680;23.260;2022-07-23T10:45:30;7.07;;;5.35;;
12784;SDS011;6456;42.680;23.260;2022-07-23T10:48:11;7.43;;;5.10;;
12784;SDS011;6456;42.680;23.260;2022-07-23T10:50:40;9.55;;;5.03;;
12784;SDS011;6456;42.680;23.260;2022-07-23T10:53:12;8.13;;;5.00;;
12784;SDS011;6456;42.680;23.260;2022-07-23T10:55:47;11.23;;;5.30;;
12784;SDS011;6456;42.680;23.260;2022-07-23T10:58:22;8.73;;;4.75;;
12784;SDS011;6456;42.680;23.260;2022-07-23T11:03:58;12.40;;;5.15;;
12784;SDS011;6456;42.680;23.260;2022-07-23T11:06:31;8.18;;;4.32;;
12784;SDS011;6456;42.680;23.260;2022-07-23T11:09:38;11.45;;;4.63;;
12784;SDS011;6456;42.680;23.260;2022-07-23T11:15:04;12.07;;;4.97;;
12784;SDS011;6456;42.680;23.260;2022-07-23T11:17:33;10.73;;;4.68;;
12784;SDS011;6456;42.680;23.260;2022-07-23T11:20:15;8.63;;;4.63;;
12784;SDS011;6456;42.680;23.260;2022-07-23T11:22:47;10.38;;;4.80;;
12784;SDS011;6456;42.680;23.260;2022-07-23T11:25:28;15.00;;;4.90;;
12784;SDS011;6456;42.680;23.260;2022-07-23T11:28:08;8.20;;;4.30;;
12784;SDS011;6456;42.680;23.260;2022-07-23T11:30:37;10.90;;;4.63;;
12784;SDS011;6456;42.680;23.260;2022-07-23T11:33:16;7.43;;;5.00;;
12784;SDS011;6456;42.680;23.260;2022-07-23T11:35:45;10.38;;;5.30;;
12784;SDS011;6456;42.680;23.260;2022-07-23T11:38:13;7.82;;;4.38;;
12784;SDS011;6456;42.680;23.260;2022-07-23T11:40:41;10.90;;;4.47;;
12784;SDS011;6456;42.680;23.260;2022-07-23T11:43:12;9.73;;;4.38;;
12784;SDS011;6456;42.680;23.260;2022-07-23T11:45:40;12.30;;;5.07;;
12784;SDS011;6456;42.680;23.260;2022-07-23T11:48:15;8.68;;;4.32;;
12784;SDS011;6456;42.680;23.260;2022-07-23T11:50:43;12.63;;;4.78;;
12784;SDS011;6456;42.680;23.260;2022-07-23T11:53:10;10.85;;;4.65;;
12784;SDS011;6456;42.680;23.260;2022-07-23T11:55:37;12.82;;;4.82;;
12784;SDS011;6456;42.680;23.260;2022-07-23T11:58:04;14.43;;;4.80;;
12784;SDS011;6456;42.680;23.260;2022-07-23T12:00:33;13.50;;;4.43;;
12784;SDS011;6456;42.680;23.260;2022-07-23T12:03:00;10.73;;;4.30;;
12784;SDS011;6456;42.680;23.260;2022-07-23T12:05:30;13.80;;;4.60;;
12784;SDS011;6456;42.680;23.260;2022-07-23T12:07:58;12.30;;;4.82;;
12784;SDS011;6456;42.680;23.260;2022-07-23T12:10:26;11.07;;;4.68;;
12784;SDS011;6456;42.680;23.260;2022-07-23T12:12:55;9.23;;;4.50;;
12784;SDS011;6456;42.680;23.260;2022-07-23T12:15:24;8.70;;;4.90;;
12784;SDS011;6456;42.680;23.260;2022-07-23T12:17:53;9.35;;;4.93;;
12784;SDS011;6456;42.680;23.260;2022-07-23T12:20:20;10.20;;;5.15;;
12784;SDS011;6456;42.680;23.260;2022-07-23T12:22:49;11.70;;;4.80;;
12784;SDS011;6456;42.680;23.260;2022-07-23T12:25:18;9.18;;;5.13;;
12784;SDS011;6456;42.680;23.260;2022-07-23T12:27:45;19.13;;;5.72;;
12784;SDS011;6456;42.680;23.260;2022-07-23T12:30:24;11.98;;;4.53;;
12784;SDS011;6456;42.680;23.260;2022-07-23T12:32:54;10.35;;;4.82;;
12784;SDS011;6456;42.680;23.260;2022-07-23T12:35:23;11.88;;;4.97;;
12784;SDS011;6456;42.680;23.260;2022-07-23T12:37:59;9.43;;;4.65;;
12784;SDS011;6456;42.680;23.260;2022-07-23T12:40:27;10.38;;;4.82;;
12784;SDS011;6456;42.680;23.260;2022-07-23T12:42:58;10.02;;;5.05;;
12784;SDS011;6456;42.680;23.260;2022-07-23T12:45:27;11.73;;;4.70;;
12784;SDS011;6456;42.680;23.260;2022-07-23T12:48:14;8.73;;;4.45;;
12784;SDS011;6456;42.680;23.260;2022-07-23T12:50:43;8.65;;;4.53;;
12784;SDS011;6456;42.680;23.260;2022-07-23T12:53:15;11.13;;;4.78;;
12784;SDS011;6456;42.680;23.260;2022-07-23T12:55:43;10.00;;;4.97;;
12784;SDS011;6456;42.680;23.260;2022-07-23T12:58:12;7.35;;;4.47;;
12784;SDS011;6456;42.680;23.260;2022-07-23T13:00:54;7.60;;;4.90;;
12784;SDS011;6456;42.680;23.260;2022-07-23T13:03:25;12.50;;;5.10;;
12784;SDS011;6456;42.680;23.260;2022-07-23T13:05:53;7.43;;;5.25;;
12784;SDS011;6456;42.680;23.260;2022-07-23T13:08:21;11.68;;;4.95;;
12784;SDS011;6456;42.680;23.260;2022-07-23T13:10:48;9.88;;;4.95;;
12784;SDS011;6456;42.680;23.260;2022-07-23T13:13:16;6.35;;;4.40;;
12784;SDS011;6456;42.680;23.260;2022-07-23T13:15:45;10.07;;;4.97;;
12784;SDS011;6456;42.680;23.260;2022-07-23T13:18:12;13.82;;;5.55;;
12784;SDS011;6456;42.680;23.260;2022-07-23T13:20:40;8.25;;;4.72;;
12784;SDS011;6456;42.680;23.260;2022-07-23T13:23:07;8.43;;;4.50;;
12784;SDS011;6456;42.680;23.260;2022-07-23T13:25:34;9.95;;;5.10;;
12784;SDS011;6456;42.680;23.260;2022-07-23T13:28:01;12.38;;;4.63;;
12784;SDS011;6456;42.680;23.260;2022-07-23T13:30:28;8.50;;;5.15;;
12784;SDS011;6456;42.680;23.260;2022-07-23T13:32:55;10.45;;;4.63;;
12784;SDS011;6456;42.680;23.260;2022-07-23T13:35:22;6.38;;;4.50;;
12784;SDS011;6456;42.680;23.260;2022-07-23T13:37:50;10.02;;;4.43;;
12784;SDS011;6456;42.680;23.260;2022-07-23T13:40:17;9.48;;;4.78;;
12784;SDS011;6456;42.680;23.260;2022-07-23T13:42:44;11.60;;;4.65;;
12784;SDS011;6456;42.680;23.260;2022-07-23T13:45:11;12.40;;;4.72;;
12784;SDS011;6456;42.680;23.260;2022-07-23T13:47:38;8.00;;;4.93;;
12784;SDS011;6456;42.680;23.260;2022-07-23T13:50:05;8.60;;;4.20;;
12784;SDS011;6456;42.680;23.260;2022-07-23T13:52:32;10.07;;;4.10;;
12784;SDS011;6456;42.680;23.260;2022-07-23T13:55:01;9.05;;;4.85;;
12784;SDS011;6456;42.680;23.260;2022-07-23T13:57:29;7.43;;;4.05;;
12784;SDS011;6456;42.680;23.260;2022-07-23T13:59:56;8.88;;;4.75;;
12784;SDS011;6456;42.680;23.260;2022-07-23T14:02:23;8.00;;;3.72;;
12784;SDS011;6456;42.680;23.260;2022-07-23T14:04:50;11.70;;;4.57;;
12784;SDS011;6456;42.680;23.260;2022-07-23T14:07:17;12.32;;;4.78;;
12784;SDS011;6456;42.680;23.260;2022-07-23T14:09:44;14.80;;;5.10;;
12784;SDS011;6456;42.680;23.260;2022-07-23T14:12:13;7.13;;;4.35;;
12784;SDS011;6456;42.680;23.260;2022-07-23T14:14:39;7.38;;;4.43;;
12784;SDS011;6456;42.680;23.260;2022-07-23T14:17:08;9.02;;;4.40;;
12784;SDS011;6456;42.680;23.260;2022-07-23T14:19:35;8.35;;;4.47;;
12784;SDS011;6456;42.680;23.260;2022-07-23T14:22:02;6.15;;;4.20;;
12784;SDS011;6456;42.680;23.260;2022-07-23T14:24:28;6.82;;;5.05;;
12784;SDS011;6456;42.680;23.260;2022-07-23T14:26:55;10.85;;;4.53;;
12784;SDS011;6456;42.680;23.260;2022-07-23T14:29:23;13.75;;;4.63;;
12784;SDS011;6456;42.680;23.260;2022-07-23T14:31:50;6.97;;;4.78;;
12784;SDS011;6456;42.680;23.260;2022-07-23T14:34:17;9.23;;;4.35;;
12784;SDS011;6456;42.680;23.260;2022-07-23T14:36:44;6.88;;;4.20;;
12784;SDS011;6456;42.680;23.260;2022-07-23T14:39:11;11.02;;;4.68;;
12784;SDS011;6456;42.680;23.260;2022-07-23T14:41:38;11.00;;;4.53;;
12784;SDS011;6456;42.680;23.260;2022-07-23T14:44:05;7.70;;;4.38;;
12784;SDS011;6456;42.680;23.260;2022-07-23T14:46:33;10.18;;;4.53;;
12784;SDS011;6456;42.680;23.260;2022-07-23T14:49:00;9.15;;;4.47;;
12784;SDS011;6456;42.680;23.260;2022-07-23T14:51:27;9.77;;;4.60;;
12784;SDS011;6456;42.680;23.260;2022-07-23T14:53:54;9.40;;;4.47;;
12784;SDS011;6456;42.680;23.260;2022-07-23T14:56:20;10.35;;;4.90;;
12784;SDS011;6456;42.680;23.260;2022-07-23T14:58:47;8.25;;;4.82;;
12784;SDS011;6456;42.680;23.260;2022-07-23T15:01:14;6.38;;;4.43;;